Time;durP1;ratioP1;P1;durP2;ratioP2;P2;SDS_P1;SDS_P2;PMS_P1;PMS_P2;Temp;Humidity;BMP_temperature;BMP_pressure;BME280_temperature;BME280_humidity;BME280_pressure;Samples;Min_cycle;Max_cycle;Signal;HPM_P1;HPM_P2
2022/02/26 00:01:42;;;;;;;3.90;1.33;;;;;;;15.22;36.94;100754.63;5045543;28;20137;-82
2022/02/26 00:04:10;;;;;;;2.43;1.30;;;;;;;15.28;37.10;100785.19;5037353;28;20208;-83
2022/02/26 00:06:37;;;;;;;4.67;1.50;;;;;;;15.37;37.13;100794.59;5029587;28;20053;-84
2022/02/26 00:09:05;;;;;;;2.53;1.50;;;;;;;15.24;37.27;100778.47;5020415;28;20053;-83
2022/02/26 00:11:35;;;;;;;2.63;1.17;;;;;;;15.13;37.46;100774.19;5023043;28;20100;-84
2022/02/26 00:14:02;;;;;;;2.93;1.37;;;;;;;15.27;37.52;100803.19;5030840;28;20129;-83
2022/02/26 00:16:33;;;;;;;3.53;1.25;;;;;;;15.13;37.28;100762.94;5026047;28;20141;-82
2022/02/26 00:19:02;;;;;;;3.57;1.27;;;;;;;14.97;37.56;100756.69;5028384;28;20111;-83
2022/02/26 00:21:30;;;;;;;2.77;1.40;;;;;;;15.21;37.30;100798.78;5021709;28;20081;-83
2022/02/26 00:23:57;;;;;;;2.93;1.57;;;;;;;14.99;37.42;100765.66;5028498;28;20053;-82
2022/02/26 00:26:25;;;;;;;2.23;0.83;;;;;;;15.00;37.57;100775.78;5019986;28;20077;-85
2022/02/26 00:28:51;;;;;;;4.17;1.00;;;;;;;14.93;37.43;100756.47;5017925;28;20077;-84
2022/02/26 00:31:18;;;;;;;4.00;1.20;;;;;;;15.07;37.63;100781.03;5016867;28;20135;-83
2022/02/26 00:33:45;;;;;;;0.70;0.70;;;;;;;15.00;37.55;100783.38;5032871;28;20049;-84
2022/02/26 00:36:12;;;;;;;2.17;1.30;;;;;;;14.81;37.66;100742.06;5019567;28;20133;-83
2022/02/26 00:38:39;;;;;;;5.90;1.00;;;;;;;14.84;37.65;100744.25;5018470;28;20493;-83
2022/02/26 00:41:06;;;;;;;2.83;1.20;;;;;;;15.12;37.43;100778.13;5013369;28;20483;-84
2022/02/26 00:43:33;;;;;;;4.60;1.20;;;;;;;15.07;37.51;100781.03;5015707;28;20149;-84
2022/02/26 00:46:00;;;;;;;5.43;2.30;;;;;;;15.03;37.17;100771.53;5016290;28;20081;-83
2022/02/26 00:51:13;;;;;;;4.47;1.50;;;;;;;15.13;37.18;100779.81;5016981;28;20529;-86
2022/02/26 00:53:40;;;;;;;2.43;1.13;;;;;;;15.21;37.14;100773.47;5015653;28;20133;-85
2022/02/26 00:56:07;;;;;;;2.47;1.20;;;;;;;15.12;37.15;100750.00;5024977;28;20053;-84
2022/02/26 00:58:33;;;;;;;0.60;0.53;;;;;;;14.86;37.11;100721.44;5016021;28;20050;-83
2022/02/26 01:01:00;;;;;;;2.70;1.20;;;;;;;15.14;37.26;100778.66;5032118;28;20136;-84
2022/02/26 01:03:27;;;;;;;2.57;1.47;;;;;;;14.71;37.18;100702.84;5022670;28;20468;-84
2022/02/26 01:05:55;;;;;;;8.13;0.77;;;;;;;14.73;37.27;100736.28;5026841;28;20045;-82
2022/02/26 01:08:21;;;;;;;0.73;0.43;;;;;;;14.63;37.36;100751.31;5017386;28;20085;-83
2022/02/26 01:10:48;;;;;;;1.70;0.83;;;;;;;14.57;37.73;100753.38;5012348;28;20046;-85
2022/02/26 01:13:15;;;;;;;3.80;0.83;;;;;;;14.62;37.53;100732.78;5022112;28;20069;-83
2022/02/26 01:15:42;;;;;;;3.50;0.83;;;;;;;14.62;37.25;100750.47;5024219;28;20080;-84
2022/02/26 01:18:09;;;;;;;1.03;0.60;;;;;;;14.33;37.76;100697.19;5013575;28;20141;-86
2022/02/26 01:20:36;;;;;;;4.23;0.90;;;;;;;14.28;37.85;100716.91;5018023;28;20077;-83
2022/02/26 01:23:03;;;;;;;2.37;1.00;;;;;;;14.33;37.53;100701.97;5027469;28;20073;-83
2022/02/26 01:25:30;;;;;;;2.70;1.10;;;;;;;14.44;37.52;100715.56;5035546;28;20057;-83
2022/02/26 01:27:57;;;;;;;3.10;1.10;;;;;;;14.44;37.68;100734.41;5017304;28;20048;-83
2022/02/26 01:30:25;;;;;;;3.03;1.17;;;;;;;14.40;37.71;100731.38;5025936;28;20473;-82
2022/02/26 01:32:52;;;;;;;0.60;0.60;;;;;;;14.35;37.95;100737.03;5011183;28;20517;-82
2022/02/26 01:35:20;;;;;;;0.83;0.50;;;;;;;14.59;37.38;100728.59;5043965;28;20050;-81
2022/02/26 01:37:47;;;;;;;1.93;0.70;;;;;;;14.53;37.33;100703.66;5033095;28;20051;-83
2022/02/26 01:40:14;;;;;;;4.80;1.10;;;;;;;14.29;37.72;100713.00;5035633;28;20045;-83
2022/02/26 01:42:42;;;;;;;1.27;0.87;;;;;;;14.41;37.52;100699.31;5032192;28;20052;-83
2022/02/26 01:45:11;;;;;;;1.03;0.70;;;;;;;13.96;37.73;100644.63;5034304;28;20053;-81
2022/02/26 01:47:39;;;;;;;1.85;0.50;;;;;;;14.02;37.85;100665.03;5030482;28;20478;-83
2022/02/26 01:50:08;;;;;;;1.30;0.70;;;;;;;14.25;37.88;100699.84;5035228;28;20172;-83
2022/02/26 01:52:35;;;;;;;0.43;0.43;;;;;;;14.12;37.99;100701.41;5044199;28;20057;-84
2022/02/26 01:55:06;;;;;;;0.55;0.45;;;;;;;14.12;37.97;100695.78;5007903;28;20299;-83
2022/02/26 01:57:33;;;;;;;0.50;0.30;;;;;;;13.99;37.45;100641.22;5016591;28;20514;-84
2022/02/26 02:00:00;;;;;;;1.10;0.80;;;;;;;14.37;37.19;100681.41;5010848;28;20101;-85
2022/02/26 02:02:26;;;;;;;1.57;0.87;;;;;;;14.21;37.20;100644.25;5035472;28;20077;-84
2022/02/26 02:04:54;;;;;;;3.20;0.97;;;;;;;14.45;37.01;100668.63;5018278;28;20531;-84
2022/02/26 02:07:21;;;;;;;1.30;0.93;;;;;;;14.40;37.15;100669.56;5024123;28;20054;-78
2022/02/26 02:09:48;;;;;;;4.77;1.23;;;;;;;14.57;37.12;100685.09;5035239;28;20048;-82
2022/02/26 02:12:15;;;;;;;0.40;0.20;;;;;;;14.29;37.64;100684.91;5042011;28;20043;-81
2022/02/26 02:14:56;;;;;;;6.63;0.83;;;;;;;13.94;37.88;100672.97;5035638;28;20032;-82
2022/02/26 02:17:24;;;;;;;1.00;0.60;;;;;;;14.06;37.74;100675.38;5031925;28;20030;-83
2022/02/26 02:19:51;;;;;;;0.57;0.57;;;;;;;13.98;37.67;100662.84;5055090;28;20041;-83
2022/02/26 02:22:19;;;;;;;1.63;1.00;;;;;;;14.34;37.22;100670.75;5049590;28;20026;-81
2022/02/26 02:24:47;;;;;;;2.40;1.17;;;;;;;14.09;37.38;100662.72;5034511;28;20046;-83
2022/02/26 02:27:16;;;;;;;1.80;0.77;;;;;;;14.16;37.37;100664.00;5030456;28;20041;-83
2022/02/26 02:29:44;;;;;;;2.27;0.93;;;;;;;14.03;37.64;100670.34;5035928;28;20030;-82
2022/02/26 02:32:11;;;;;;;2.90;1.00;;;;;;;13.97;37.66;100660.31;5033607;28;20052;-82
2022/02/26 02:34:38;;;;;;;5.37;1.00;;;;;;;13.77;37.68;100643.75;5023604;28;20037;-83
2022/02/26 02:37:10;;;;;;;0.47;0.47;;;;;;;13.93;37.58;100660.09;5015263;28;20037;-81
2022/02/26 02:39:40;;;;;;;4.17;0.80;;;;;;;13.93;37.66;100654.47;5043644;28;20076;-83
2022/02/26 02:42:07;;;;;;;5.23;0.83;;;;;;;13.88;37.64;100645.28;5027804;28;20035;-82
2022/02/26 02:44:34;;;;;;;0.60;0.40;;;;;;;13.87;37.70;100672.50;5040757;28;20029;-84
2022/02/26 02:47:02;;;;;;;0.40;0.20;;;;;;;13.75;37.92;100669.31;5048831;28;20057;-82
2022/02/26 02:49:29;;;;;;;1.07;0.60;;;;;;;13.83;37.89;100671.44;5033058;28;20054;-84
2022/02/26 02:51:56;;;;;;;1.43;0.20;;;;;;;13.75;37.94;100663.69;5028879;28;20060;-82
2022/02/26 02:54:23;;;;;;;0.20;0.20;;;;;;;13.64;38.17;100640.53;5025055;28;20046;-83
2022/02/26 02:56:50;;;;;;;1.80;0.70;;;;;;;13.59;38.14;100628.53;5031773;28;20060;-84
2022/02/26 02:59:17;;;;;;;2.87;1.30;;;;;;;13.20;38.45;100565.00;5020266;28;20084;-82
2022/02/26 03:01:44;;;;;;;3.20;0.87;;;;;;;13.53;38.15;100599.69;5010244;28;20050;-83
2022/02/26 03:04:11;;;;;;;0.63;0.60;;;;;;;13.73;38.12;100613.47;5015186;28;20413;-83
2022/02/26 03:06:39;;;;;;;0.80;0.67;;;;;;;13.55;38.51;100619.03;5008426;28;20112;-82
2022/02/26 03:09:11;;;;;;;3.97;1.47;;;;;;;13.43;38.34;100588.59;5024324;28;20046;-83
2022/02/26 03:11:38;;;;;;;1.37;1.20;;;;;;;13.61;38.02;100613.06;5013310;28;20137;-83
2022/02/26 03:14:04;;;;;;;2.97;0.87;;;;;;;13.72;38.19;100614.59;5012880;28;20132;-82
2022/02/26 03:16:35;;;;;;;;;;;;;;;13.69;38.27;100615.19;5013911;28;20140;-83
2022/02/26 03:19:01;;;;;;;1.00;0.67;;;;;;;13.51;38.30;100593.56;5026923;28;20036;-82
2022/02/26 03:21:29;;;;;;;0.73;0.73;;;;;;;13.50;38.33;100614.31;5016541;28;20049;-83
2022/02/26 03:23:57;;;;;;;3.53;0.80;;;;;;;13.50;38.54;100601.16;5016328;28;20041;-84
2022/02/26 03:26:23;;;;;;;0.60;0.50;;;;;;;13.52;38.19;100617.66;5013479;28;20549;-83
2022/02/26 03:28:50;;;;;;;0.97;0.67;;;;;;;13.44;38.32;100610.75;5014870;28;20109;-82
2022/02/26 03:31:17;;;;;;;3.00;1.27;;;;;;;13.26;38.58;100589.06;5003024;28;20140;-83
2022/02/26 03:33:45;;;;;;;1.10;0.53;;;;;;;13.22;38.57;100588.78;5014047;28;20469;-83
2022/02/26 03:36:12;;;;;;;1.73;1.60;;;;;;;13.10;38.47;100588.38;5016162;28;20116;-82
2022/02/26 03:38:42;;;;;;;2.00;0.57;;;;;;;12.79;38.71;100551.44;5023911;28;20456;-83
2022/02/26 03:41:13;;;;;;;2.37;1.27;;;;;;;13.15;38.48;100607.09;5011346;28;20054;-82
2022/02/26 03:43:41;;;;;;;2.13;0.50;;;;;;;13.16;38.46;100591.94;5009622;28;20701;-82
2022/02/26 03:46:08;;;;;;;4.03;1.53;;;;;;;13.12;38.70;100611.34;5007814;28;20073;-83
2022/02/26 03:48:38;;;;;;;7.00;0.60;;;;;;;13.15;38.67;100595.91;5007431;28;20050;-83
2022/02/26 03:51:05;;;;;;;0.93;0.60;;;;;;;13.05;38.39;100558.41;5011201;28;20322;-83
2022/02/26 03:53:33;;;;;;;0.40;0.40;;;;;;;12.93;38.59;100543.16;5028691;28;20050;-81
2022/02/26 03:56:00;;;;;;;0.73;0.50;;;;;;;13.23;38.45;100584.00;5019881;28;20506;-85
2022/02/26 03:58:26;;;;;;;0.30;0.30;;;;;;;13.23;38.54;100579.28;5019076;28;20128;-84
2022/02/26 04:00:53;;;;;;;0.70;0.70;;;;;;;13.11;38.50;100576.03;5007975;28;20077;-83
2022/02/26 04:03:20;;;;;;;0.73;0.57;;;;;;;13.24;38.50;100574.53;5016994;28;20057;-83
2022/02/26 04:05:48;;;;;;;1.93;1.07;;;;;;;13.30;38.55;100590.16;5015768;28;20411;-84
2022/02/26 04:08:14;;;;;;;2.60;1.57;;;;;;;13.46;38.49;100583.22;5017431;28;20073;-84
2022/02/26 04:10:43;;;;;;;1.00;0.57;;;;;;;13.33;38.51;100575.50;5019899;28;20486;-82
2022/02/26 04:13:10;;;;;;;2.73;0.73;;;;;;;13.32;38.44;100571.03;5015941;28;20054;-83
2022/02/26 04:15:37;;;;;;;1.07;0.77;;;;;;;13.15;38.61;100531.41;5029253;28;20129;-83
2022/02/26 04:18:04;;;;;;;5.27;0.97;;;;;;;13.26;38.74;100555.41;5035086;28;20512;-84
2022/02/26 04:20:31;;;;;;;0.50;0.50;;;;;;;13.09;38.93;100553.03;5014455;28;20052;-82
2022/02/26 04:22:59;;;;;;;0.37;0.37;;;;;;;13.29;38.70;100557.63;5009584;28;20054;-82
2022/02/26 04:25:26;;;;;;;0.83;0.73;;;;;;;13.10;39.14;100559.50;5011870;28;20073;-82
2022/02/26 04:27:53;;;;;;;0.30;0.30;;;;;;;13.10;39.02;100565.94;5011226;28;20149;-82
2022/02/26 04:30:20;;;;;;;0.93;0.80;;;;;;;12.95;39.30;100541.69;5017007;28;20552;-83
2022/02/26 04:32:49;;;;;;;0.38;0.38;;;;;;;12.99;39.22;100545.59;5027568;28;20469;-81
2022/02/26 04:35:17;;;;;;;1.07;0.57;;;;;;;12.95;39.57;100550.13;5011533;28;20046;-82
2022/02/26 04:37:43;;;;;;;0.33;0.30;;;;;;;13.00;39.10;100540.84;5008114;28;20079;-82
2022/02/26 04:40:11;;;;;;;0.57;0.50;;;;;;;12.95;39.18;100561.31;5008223;28;20138;-82
2022/02/26 04:42:39;;;;;;;1.30;0.67;;;;;;;12.90;39.41;100541.78;5015632;28;20081;-81
2022/02/26 04:45:08;;;;;;;7.20;0.83;;;;;;;12.99;39.17;100556.81;5015802;28;20376;-83
2022/02/26 04:47:36;;;;;;;1.30;0.40;;;;;;;12.91;38.90;100508.97;5020329;28;20081;-83
2022/02/26 04:50:05;;;;;;;1.80;0.93;;;;;;;13.10;38.77;100551.09;5016143;28;20163;-81
2022/02/26 04:52:32;;;;;;;2.13;1.02;;;;;;;13.05;38.98;100552.81;5020642;28;20129;-83
2022/02/26 04:54:59;;;;;;;2.27;0.70;;;;;;;12.98;38.82;100509.44;5017414;28;20569;-83
2022/02/26 04:57:25;;;;;;;1.13;0.70;;;;;;;13.18;38.95;100556.03;5017084;28;20066;-83
2022/02/26 04:59:53;;;;;;;6.53;0.83;;;;;;;12.95;39.08;100533.28;5015968;28;20128;-82
2022/02/26 05:02:20;;;;;;;3.20;0.77;;;;;;;13.07;38.36;100526.47;5014110;28;20145;-84
2022/02/26 05:04:48;;;;;;;0.47;0.47;;;;;;;13.18;38.83;100537.25;5015987;28;20056;-82
2022/02/26 05:07:19;;;;;;;2.83;0.60;;;;;;;13.07;38.61;100529.25;5013998;28;20081;-84
2022/02/26 05:09:46;;;;;;;2.27;2.07;;;;;;;13.21;38.47;100524.59;4992803;28;20129;-84
2022/02/26 05:12:13;;;;;;;0.33;0.33;;;;;;;13.44;38.32;100545.41;5014799;28;20137;-83
2022/02/26 05:14:40;;;;;;;0.67;0.50;;;;;;;13.27;38.27;100537.47;5013163;28;20066;-83
2022/02/26 05:17:06;;;;;;;0.20;0.20;;;;;;;13.29;38.39;100560.44;5016840;28;20470;-82
2022/02/26 05:19:33;;;;;;;0.67;0.30;;;;;;;13.45;38.35;100559.09;5015412;28;20080;-83
2022/02/26 05:22:04;;;;;;;8.75;1.00;;;;;;;13.15;38.64;100528.59;5015115;28;20081;-82
2022/02/26 05:24:30;;;;;;;3.23;0.80;;;;;;;13.25;38.70;100550.94;5018317;28;20054;-82
2022/02/26 05:26:58;;;;;;;1.30;0.53;;;;;;;13.14;38.99;100546.56;5012246;28;20080;-84
2022/02/26 05:29:25;;;;;;;0.73;0.50;;;;;;;12.97;39.04;100530.22;5013826;28;20410;-83
2022/02/26 05:31:51;;;;;;;1.77;0.97;;;;;;;13.22;38.91;100546.72;5013783;28;20081;-84
2022/02/26 05:34:18;;;;;;;4.33;1.13;;;;;;;13.20;38.90;100553.78;5008416;28;20396;-83
2022/02/26 05:36:45;;;;;;;2.10;0.80;;;;;;;13.28;38.75;100541.94;5030600;28;20168;-83
2022/02/26 05:39:13;;;;;;;3.50;0.63;;;;;;;12.89;39.24;100506.47;5011753;28;20136;-83
2022/02/26 05:41:41;;;;;;;4.05;1.15;;;;;;;12.94;38.88;100511.19;5017959;28;20107;-83
2022/02/26 05:44:10;;;;;;;0.60;0.40;;;;;;;12.93;39.48;100541.19;5028221;28;20491;-86
2022/02/26 05:46:37;;;;;;;2.00;1.30;;;;;;;12.75;39.84;100517.56;5046455;28;20025;-83
2022/02/26 05:49:05;;;;;;;1.03;0.83;;;;;;;12.79;40.10;100517.81;5050119;28;20037;-83
2022/02/26 05:51:31;;;;;;;1.53;0.83;;;;;;;12.94;39.63;100536.41;5033896;28;20056;-83
2022/02/26 05:53:58;;;;;;;0.53;0.50;;;;;;;12.98;39.73;100540.28;5028875;28;20157;-82
2022/02/26 05:56:25;;;;;;;0.83;0.73;;;;;;;12.90;40.08;100536.16;5021757;28;20049;-82
2022/02/26 05:58:52;;;;;;;2.27;1.30;;;;;;;12.93;39.88;100535.56;5019596;28;20045;-83
2022/02/26 06:01:18;;;;;;;0.63;0.60;;;;;;;12.94;39.90;100512.00;5011748;28;20073;-84
2022/02/26 06:03:46;;;;;;;3.20;1.07;;;;;;;12.77;40.03;100497.63;5013879;28;20069;-83
2022/02/26 06:06:13;;;;;;;1.97;0.83;;;;;;;13.06;39.91;100522.84;4997003;28;20047;-83
2022/02/26 06:08:39;;;;;;;0.60;0.57;;;;;;;12.89;40.11;100517.69;5012635;28;20081;-83
2022/02/26 06:11:06;;;;;;;1.93;1.23;;;;;;;13.00;40.14;100518.41;5009271;28;20134;-83
2022/02/26 06:13:33;;;;;;;0.40;0.40;;;;;;;12.87;40.37;100538.72;5010446;28;20454;-84
2022/02/26 06:16:00;;;;;;;1.67;0.87;;;;;;;12.60;40.56;100486.88;5015782;28;20078;-83
2022/02/26 06:18:28;;;;;;;4.17;1.43;;;;;;;12.77;40.54;100531.25;5014551;28;20101;-81
2022/02/26 06:20:54;;;;;;;0.67;0.50;;;;;;;12.67;40.63;100495.75;5013486;28;20092;-82
2022/02/26 06:23:21;;;;;;;1.43;0.60;;;;;;;12.81;40.34;100527.56;5004397;28;20125;-82
2022/02/26 06:25:48;;;;;;;6.63;1.00;;;;;;;12.70;40.70;100536.38;5002457;28;20078;-82
2022/02/26 06:28:15;;;;;;;0.43;0.43;;;;;;;12.87;40.32;100539.56;5012930;28;20129;-81
2022/02/26 06:30:42;;;;;;;1.70;0.53;;;;;;;12.94;40.08;100526.03;5012064;28;20085;-80
2022/02/26 06:33:13;;;;;;;1.63;0.97;;;;;;;12.73;40.54;100517.00;5019833;28;20054;-82
2022/02/26 06:35:42;;;;;;;0.50;0.50;;;;;;;12.72;40.62;100526.56;5031719;28;20457;-82
2022/02/26 06:38:14;;;;;;;0.90;0.83;;;;;;;12.78;40.45;100528.16;5010874;28;20399;-82
2022/02/26 06:40:41;;;;;;;1.07;0.70;;;;;;;12.76;40.52;100499.59;5012186;28;20077;-81
2022/02/26 06:43:10;;;;;;;0.97;0.83;;;;;;;12.84;40.44;100536.50;5007965;28;20104;-81
2022/02/26 06:45:38;;;;;;;0.37;0.37;;;;;;;12.48;40.80;100494.84;5008508;28;20314;-82
2022/02/26 06:48:05;;;;;;;1.03;0.60;;;;;;;12.71;40.93;100540.84;5028694;28;20513;-82
2022/02/26 06:50:31;;;;;;;1.17;1.07;;;;;;;12.70;40.54;100516.75;5018001;28;20379;-82
2022/02/26 06:52:58;;;;;;;2.53;1.33;;;;;;;12.83;40.51;100530.06;5018241;28;20410;-82
2022/02/26 06:55:25;;;;;;;2.93;2.73;;;;;;;12.80;40.61;100541.88;5013482;28;20080;-82
2022/02/26 06:57:52;;;;;;;1.83;1.00;;;;;;;12.67;40.69;100523.78;5014449;28;20478;-82
2022/02/26 07:00:19;;;;;;;1.30;0.77;;;;;;;12.68;40.71;100541.44;5007916;28;20133;-81
2022/02/26 07:02:47;;;;;;;1.30;0.77;;;;;;;12.73;40.87;100532.97;5011478;28;20137;-82
2022/02/26 07:05:14;;;;;;;2.10;0.83;;;;;;;12.90;40.43;100555.78;5010992;28;20054;-82
2022/02/26 07:07:41;;;;;;;2.43;0.67;;;;;;;12.65;40.67;100533.59;5011964;28;20089;-81
2022/02/26 07:10:08;;;;;;;4.03;2.13;;;;;;;12.80;40.28;100516.66;5007803;28;20100;-81
2022/02/26 07:12:37;;;;;;;0.57;0.57;;;;;;;13.00;40.33;100563.25;5012445;28;20058;-81
2022/02/26 07:15:06;;;;;;;2.87;1.20;;;;;;;12.97;40.07;100547.03;5006580;28;20078;-82
2022/02/26 07:17:33;;;;;;;4.07;1.47;;;;;;;12.81;40.15;100543.53;5021329;28;20082;-83
2022/02/26 07:19:59;;;;;;;1.27;0.93;;;;;;;12.99;40.14;100570.84;5012665;28;20132;-82
2022/02/26 07:22:26;;;;;;;2.80;1.53;;;;;;;12.95;40.12;100564.13;4996266;28;20141;-84
2022/02/26 07:24:53;;;;;;;4.73;2.03;;;;;;;13.03;39.99;100569.09;5024928;28;20073;-83
2022/02/26 07:27:20;;;;;;;5.60;1.57;;;;;;;13.05;39.58;100546.38;5006790;28;20057;-83
2022/02/26 07:29:47;;;;;;;2.70;1.47;;;;;;;13.34;39.39;100587.59;5030026;28;20082;-88
2022/02/26 07:32:14;;;;;;;2.93;0.63;;;;;;;12.98;39.64;100571.94;5013949;28;20080;-87
2022/02/26 07:34:42;;;;;;;2.77;1.17;;;;;;;13.10;39.80;100584.75;5018356;28;20128;-87
2022/02/26 07:37:09;;;;;;;3.40;1.20;;;;;;;13.17;39.68;100585.22;5019165;28;20046;-84
2022/02/26 07:39:36;;;;;;;1.80;1.10;;;;;;;13.13;39.64;100586.94;5016862;28;20069;-83
2022/02/26 07:42:04;;;;;;;1.83;1.30;;;;;;;12.94;39.97;100564.44;5035823;28;20077;-82
2022/02/26 07:44:31;;;;;;;3.50;0.90;;;;;;;12.64;40.16;100531.94;5033145;28;20037;-83
2022/02/26 07:46:58;;;;;;;2.23;0.83;;;;;;;12.84;40.58;100586.97;5051925;28;20042;-75
2022/02/26 07:49:25;;;;;;;1.43;0.90;;;;;;;12.70;40.58;100584.00;5032501;28;20069;-83
2022/02/26 07:51:52;;;;;;;2.83;1.13;;;;;;;12.94;40.14;100596.09;5035068;28;20050;-84
2022/02/26 07:54:19;;;;;;;6.27;1.57;;;;;;;12.75;40.20;100567.13;5020670;28;20130;-83
2022/02/26 07:56:48;;;;;;;0.30;0.30;;;;;;;12.95;40.41;100603.38;5018170;28;20048;-78
2022/02/26 07:59:15;;;;;;;7.50;1.73;;;;;;;12.93;40.26;100605.66;5020008;28;20140;-82
2022/02/26 08:01:41;;;;;;;1.17;0.97;;;;;;;12.90;40.48;100603.44;5016412;28;20137;-76
2022/02/26 08:04:09;;;;;;;3.60;1.13;;;;;;;12.91;40.32;100591.09;5009425;28;20058;-76
2022/02/26 08:06:36;;;;;;;0.30;0.30;;;;;;;12.71;40.53;100577.25;5016648;28;20105;-81
2022/02/26 08:09:03;;;;;;;2.97;1.00;;;;;;;13.00;40.30;100603.34;5012093;28;21619;-83
2022/02/26 08:11:31;;;;;;;1.70;0.60;;;;;;;12.60;40.66;100581.28;5014375;28;20137;-79
2022/02/26 08:13:59;;;;;;;0.10;0.10;;;;;;;12.55;41.00;100573.78;5021234;28;20041;-84
2022/02/26 08:16:26;;;;;;;13.43;6.10;;;;;;;12.67;40.76;100602.22;5017849;28;20041;-81
2022/02/26 08:18:55;;;;;;;27.53;12.13;;;;;;;12.71;41.02;100616.50;5008019;28;20112;-78
2022/02/26 08:21:22;;;;;;;18.80;7.60;;;;;;;12.61;40.92;100613.78;5015178;28;20061;-84
2022/02/26 08:23:49;;;;;;;15.10;8.77;;;;;;;12.71;40.62;100611.72;5018512;28;20045;-84
2022/02/26 08:26:17;;;;;;;4.13;2.63;;;;;;;12.87;40.63;100620.00;5013087;28;20076;-82
2022/02/26 08:28:45;;;;;;;7.83;3.90;;;;;;;12.77;40.82;100623.72;5020796;28;20573;-85
2022/02/26 08:31:11;;;;;;;12.83;3.37;;;;;;;12.66;41.02;100644.56;5009085;28;20117;-85
2022/02/26 08:33:38;;;;;;;3.60;1.70;;;;;;;12.62;41.19;100629.47;5028907;28;20498;-83
2022/02/26 08:36:05;;;;;;;7.90;3.47;;;;;;;12.54;41.25;100614.09;5006590;28;20069;-82
2022/02/26 08:38:32;;;;;;;2.90;1.33;;;;;;;12.59;41.16;100611.28;5035328;28;20138;-82
2022/02/26 08:41:00;;;;;;;12.23;5.90;;;;;;;12.37;41.26;100580.91;5028159;28;20046;-83
2022/02/26 08:43:27;;;;;;;8.50;3.30;;;;;;;12.87;40.81;100622.81;5016087;28;20045;-82
2022/02/26 08:45:54;;;;;;;17.70;6.23;;;;;;;12.92;40.65;100622.75;5017957;28;20043;-82
2022/02/26 08:48:22;;;;;;;9.87;4.83;;;;;;;12.72;40.88;100606.97;5031234;28;20041;-82
2022/02/26 08:50:49;;;;;;;7.90;3.13;;;;;;;12.88;40.75;100624.47;5040864;28;20030;-81
2022/02/26 08:53:16;;;;;;;27.57;9.60;;;;;;;12.94;41.34;100626.94;5009341;28;20053;-82
2022/02/26 08:55:44;;;;;;;22.70;11.90;;;;;;;13.14;42.76;100597.03;5045120;28;20100;-82
2022/02/26 08:58:11;;;;;;;19.67;9.53;;;;;;;13.62;41.48;100628.75;5048480;28;20046;-81
2022/02/26 09:00:38;;;;;;;35.07;12.37;;;;;;;13.82;42.00;100638.06;5031335;28;20041;-82
2022/02/26 09:03:07;;;;;;;12.20;4.40;;;;;;;13.82;40.76;100615.63;5036486;28;20502;-81
2022/02/26 09:05:35;;;;;;;10.67;5.00;;;;;;;13.97;40.26;100640.66;5033614;28;20046;-82
2022/02/26 09:08:02;;;;;;;6.13;1.60;;;;;;;13.66;39.33;100646.66;5026601;28;20057;-82
2022/02/26 09:10:29;;;;;;;0.30;0.30;;;;;;;13.42;39.33;100637.41;5031258;28;20033;-80
2022/02/26 09:12:56;;;;;;;2.63;1.33;;;;;;;13.11;39.42;100614.44;5039891;28;20076;-85
2022/02/26 09:15:23;;;;;;;0.40;0.40;;;;;;;13.34;39.52;100650.13;5023676;28;20049;-80
2022/02/26 09:17:51;;;;;;;1.87;1.30;;;;;;;13.07;40.01;100638.59;5024128;28;20054;-81
2022/02/26 09:20:18;;;;;;;2.60;0.83;;;;;;;13.10;39.92;100636.03;5020522;28;20415;-81
2022/02/26 09:22:44;;;;;;;6.10;1.90;;;;;;;13.25;39.80;100633.09;5013356;28;20069;-81
2022/02/26 09:25:13;;;;;;;1.73;1.37;;;;;;;13.38;39.72;100625.13;5016240;28;20122;-80
2022/02/26 09:27:40;;;;;;;4.53;1.00;;;;;;;13.38;39.92;100627.94;5011047;28;20463;-80
2022/02/26 09:30:08;;;;;;;0.73;0.73;;;;;;;13.57;39.80;100609.16;5004736;28;20085;-82
2022/02/26 09:32:35;;;;;;;1.73;1.00;;;;;;;13.49;39.44;100621.06;5011648;28;20108;-81
2022/02/26 09:35:04;;;;;;;2.53;1.30;;;;;;;13.94;39.33;100625.25;5009793;28;20081;-81
2022/02/26 09:37:31;;;;;;;0.80;0.70;;;;;;;14.32;38.64;100616.00;5016755;28;20529;-81
2022/02/26 09:40:01;;;;;;;3.70;1.00;;;;;;;13.96;38.56;100558.41;5015640;28;20459;-81
2022/02/26 09:42:30;;;;;;;1.83;0.67;;;;;;;14.61;38.18;100624.31;5011911;28;20149;-82
2022/02/26 09:44:57;;;;;;;0.87;0.77;;;;;;;14.34;38.16;100623.00;5026825;28;20080;-80
2022/02/26 09:47:25;;;;;;;1.33;0.77;;;;;;;14.18;38.38;100630.81;5015599;28;20054;-81
2022/02/26 09:49:52;;;;;;;3.20;0.60;;;;;;;13.89;38.74;100625.34;5016136;28;20081;-80
2022/02/26 09:52:23;;;;;;;2.83;1.73;;;;;;;13.77;39.12;100616.50;5015631;28;20467;-81
2022/02/26 09:54:51;;;;;;;1.73;0.90;;;;;;;13.59;39.53;100631.34;5016939;28;20471;-81
2022/02/26 09:57:21;;;;;;;1.63;0.77;;;;;;;13.58;39.31;100612.84;5013219;28;20046;-81
2022/02/26 09:59:48;;;;;;;3.07;1.10;;;;;;;13.42;39.71;100600.94;5013481;28;20073;-81
2022/02/26 10:02:15;;;;;;;2.47;1.33;;;;;;;13.44;39.85;100613.56;5008998;28;20081;-80
2022/02/26 10:05:10;;;;;;;0.93;0.87;;;;;;;13.32;40.22;100618.72;5010946;28;20049;-81
2022/02/26 10:07:39;;;;;;;4.43;1.33;;;;;;;13.41;40.20;100611.34;5001835;28;20465;-81
2022/02/26 10:10:15;;;;;;;1.50;1.33;;;;;;;13.26;40.45;100600.28;5023760;28;20049;-81
2022/02/26 10:12:42;;;;;;;5.93;1.07;;;;;;;13.49;40.23;100621.06;5025272;28;20046;-80
2022/02/26 10:15:38;;;;;;;2.47;1.43;;;;;;;13.54;40.09;100617.34;5013687;28;20085;-82
2022/02/26 10:18:13;;;;;;;1.47;1.10;;;;;;;13.44;40.31;100601.50;5019349;28;20465;-82
2022/02/26 10:20:53;;;;;;;3.60;1.90;;;;;;;13.64;40.16;100622.84;5020293;28;20128;-81
2022/02/26 10:23:22;;;;;;;4.43;1.47;;;;;;;13.55;40.59;100624.66;5003723;28;20085;-81
2022/02/26 10:25:50;;;;;;;3.37;1.93;;;;;;;13.35;40.52;100592.91;5002924;28;20099;-82
2022/02/26 10:28:17;;;;;;;2.80;1.73;;;;;;;13.38;40.74;100611.09;5030015;28;20062;-83
2022/02/26 10:30:49;;;;;;;1.53;1.40;;;;;;;13.31;40.90;100628.28;5010062;28;20105;-82
2022/02/26 10:33:25;;;;;;;3.37;1.47;;;;;;;13.33;40.71;100605.53;5008098;28;20113;-82
2022/02/26 10:35:59;;;;;;;2.07;1.73;;;;;;;13.18;40.99;100628.94;5008780;28;20129;-82
2022/02/26 10:38:32;;;;;;;8.53;1.53;;;;;;;13.34;41.20;100641.72;5014237;28;20080;-81
2022/02/26 10:41:09;;;;;;;6.77;2.53;;;;;;;13.42;41.06;100629.84;5010994;28;20053;-82
2022/02/26 10:43:39;;;;;;;2.03;0.93;;;;;;;13.44;41.09;100652.00;5008314;28;20049;-82
2022/02/26 10:46:32;;;;;;;4.75;1.80;;;;;;;13.43;41.21;100637.09;5010417;28;20046;-81
2022/02/26 10:49:03;;;;;;;6.27;2.73;;;;;;;13.74;40.79;100640.41;5011789;28;20557;-81
2022/02/26 10:51:33;;;;;;;5.07;2.23;;;;;;;13.75;40.64;100649.66;5014392;28;20054;-84
2022/02/26 10:54:03;;;;;;;2.25;1.20;;;;;;;13.61;40.89;100641.13;5009713;28;20082;-83
2022/02/26 10:56:31;;;;;;;5.07;2.42;;;;;;;13.55;41.04;100639.50;5014136;28;20116;-83
2022/02/26 10:58:58;;;;;;;2.00;1.07;;;;;;;13.41;40.96;100622.56;5009086;28;20545;-83
2022/02/26 11:01:25;;;;;;;1.90;1.07;;;;;;;13.55;41.14;100638.69;5024307;28;20053;-76
2022/02/26 11:03:56;;;;;;;7.22;2.42;;;;;;;13.86;40.65;100655.97;5005601;28;20061;-75
2022/02/26 11:06:25;;;;;;;1.57;1.00;;;;;;;13.90;40.82;100649.47;5012845;28;20502;-75
2022/02/26 11:08:52;;;;;;;4.07;1.40;;;;;;;13.89;40.83;100649.78;5006884;28;20049;-75
2022/02/26 11:11:22;;;;;;;3.77;1.73;;;;;;;13.55;41.07;100605.00;5009720;28;20078;-75
2022/02/26 11:13:59;;;;;;;4.03;2.08;;;;;;;13.88;41.23;100646.13;5009924;28;20043;-74
2022/02/26 11:16:28;;;;;;;3.77;1.70;;;;;;;13.88;41.08;100640.53;5005880;28;20041;-77
2022/02/26 11:18:58;;;;;;;1.40;0.90;;;;;;;13.68;40.85;100629.56;5010086;28;20057;-74
2022/02/26 11:21:25;;;;;;;5.40;2.93;;;;;;;13.86;41.30;100644.75;5010664;28;20068;-80
2022/02/26 11:23:52;;;;;;;2.90;1.77;;;;;;;13.54;41.25;100608.94;5011154;28;20770;-80
2022/02/26 11:26:21;;;;;;;3.17;2.33;;;;;;;13.65;41.70;100652.59;5021516;28;20475;-83
2022/02/26 11:28:59;;;;;;;4.13;2.47;;;;;;;13.72;41.29;100625.84;5013403;28;20064;-90
2022/02/26 11:31:37;;;;;;;2.67;1.53;;;;;;;14.04;41.12;100648.72;5009438;28;20052;-80